sensor_id;sensor_type;location;lat;lon;timestamp;temperature;humidity
52941;DHT22;62001;53.366;6.636;2023-08-12T00:00:27;18.40;99.90
52941;DHT22;62001;53.366;6.636;2023-08-12T00:02:53;18.40;99.90
52941;DHT22;62001;53.366;6.636;2023-08-12T00:05:19;18.40;99.90
52941;DHT22;62001;53.366;6.636;2023-08-12T00:07:45;18.40;99.90
52941;DHT22;62001;53.366;6.636;2023-08-12T00:10:11;18.40;99.90
52941;DHT22;62001;53.366;6.636;2023-08-12T00:12:38;18.50;99.90
52941;DHT22;62001;53.366;6.636;2023-08-12T00:15:07;18.40;99.90
52941;DHT22;62001;53.366;6.636;2023-08-12T00:17:36;18.40;99.90
52941;DHT22;62001;53.366;6.636;2023-08-12T00:20:06;18.40;99.90
52941;DHT22;62001;53.366;6.636;2023-08-12T00:22:33;18.40;99.90
52941;DHT22;62001;53.366;6.636;2023-08-12T00:24:59;18.40;99.90
52941;DHT22;62001;53.366;6.636;2023-08-12T00:27:25;18.40;99.90
52941;DHT22;62001;53.366;6.636;2023-08-12T00:29:50;18.50;99.90
52941;DHT22;62001;53.366;6.636;2023-08-12T00:32:16;18.50;99.90
52941;DHT22;62001;53.366;6.636;2023-08-12T00:34:42;18.50;99.90
52941;DHT22;62001;53.366;6.636;2023-08-12T00:37:09;18.40;99.90
52941;DHT22;62001;53.366;6.636;2023-08-12T00:39:35;18.50;99.90
52941;DHT22;62001;53.366;6.636;2023-08-12T00:42:01;18.40;99.90
52941;DHT22;62001;53.366;6.636;2023-08-12T00:44:27;18.40;99.90
52941;DHT22;62001;53.366;6.636;2023-08-12T00:46:53;18.40;99.90
52941;DHT22;62001;53.366;6.636;2023-08-12T00:49:22;18.40;99.90
52941;DHT22;62001;53.366;6.636;2023-08-12T00:51:49;18.40;99.90
52941;DHT22;62001;53.366;6.636;2023-08-12T00:54:16;18.40;99.90
52941;DHT22;62001;53.366;6.636;2023-08-12T00:56:43;18.40;99.90
52941;DHT22;62001;53.366;6.636;2023-08-12T00:59:09;18.30;99.90
52941;DHT22;62001;53.366;6.636;2023-08-12T01:01:39;18.40;99.90
52941;DHT22;62001;53.366;6.636;2023-08-12T01:04:07;18.40;99.90
52941;DHT22;62001;53.366;6.636;2023-08-12T01:06:33;18.40;99.90
52941;DHT22;62001;53.366;6.636;2023-08-12T01:09:00;18.40;99.90
52941;DHT22;62001;53.366;6.636;2023-08-12T01:11:32;18.40;99.90
52941;DHT22;62001;53.366;6.636;2023-08-12T01:14:13;18.40;99.90
52941;DHT22;62001;53.366;6.636;2023-08-12T01:16:47;18.40;99.90
52941;DHT22;62001;53.366;6.636;2023-08-12T01:22:04;18.30;99.90
52941;DHT22;62001;53.366;6.636;2023-08-12T01:24:41;18.30;99.90
52941;DHT22;62001;53.366;6.636;2023-08-12T01:27:09;18.30;99.90
52941;DHT22;62001;53.366;6.636;2023-08-12T01:29:44;18.30;99.90
52941;DHT22;62001;53.366;6.636;2023-08-12T01:32:22;18.20;99.90
52941;DHT22;62001;53.366;6.636;2023-08-12T01:35:07;18.30;99.90
52941;DHT22;62001;53.366;6.636;2023-08-12T01:37:36;18.30;99.90
52941;DHT22;62001;53.366;6.636;2023-08-12T01:40:06;18.30;99.90
52941;DHT22;62001;53.366;6.636;2023-08-12T01:42:33;18.30;99.90
52941;DHT22;62001;53.366;6.636;2023-08-12T01:44:59;18.30;99.90
52941;DHT22;62001;53.366;6.636;2023-08-12T01:47:27;18.30;99.90
52941;DHT22;62001;53.366;6.636;2023-08-12T01:49:54;18.30;99.90
52941;DHT22;62001;53.366;6.636;2023-08-12T01:52:20;18.30;99.90
52941;DHT22;62001;53.366;6.636;2023-08-12T01:54:45;18.40;99.90
52941;DHT22;62001;53.366;6.636;2023-08-12T01:57:11;18.30;99.90
52941;DHT22;62001;53.366;6.636;2023-08-12T01:59:38;18.30;99.90
52941;DHT22;62001;53.366;6.636;2023-08-12T02:02:04;18.30;99.90
52941;DHT22;62001;53.366;6.636;2023-08-12T02:04:30;18.40;99.90
52941;DHT22;62001;53.366;6.636;2023-08-12T02:06:57;18.30;99.90
52941;DHT22;62001;53.366;6.636;2023-08-12T02:09:23;18.40;99.90
52941;DHT22;62001;53.366;6.636;2023-08-12T02:11:49;18.40;99.90
52941;DHT22;62001;53.366;6.636;2023-08-12T02:14:15;18.30;99.90
52941;DHT22;62001;53.366;6.636;2023-08-12T02:16:41;18.20;99.90
52941;DHT22;62001;53.366;6.636;2023-08-12T02:19:07;18.20;99.90
52941;DHT22;62001;53.366;6.636;2023-08-12T02:21:33;18.00;99.90
52941;DHT22;62001;53.366;6.636;2023-08-12T02:23:59;17.90;99.90
52941;DHT22;62001;53.366;6.636;2023-08-12T02:26:25;17.90;99.90
52941;DHT22;62001;53.366;6.636;2023-08-12T02:28:51;17.90;99.90
52941;DHT22;62001;53.366;6.636;2023-08-12T02:31:17;17.80;99.90
52941;DHT22;62001;53.366;6.636;2023-08-12T02:33:43;17.80;99.90
52941;DHT22;62001;53.366;6.636;2023-08-12T02:36:09;17.70;99.90
52941;DHT22;62001;53.366;6.636;2023-08-12T02:38:35;17.70;99.90
52941;DHT22;62001;53.366;6.636;2023-08-12T02:41:01;17.80;99.90
52941;DHT22;62001;53.366;6.636;2023-08-12T02:43:26;17.90;99.90
52941;DHT22;62001;53.366;6.636;2023-08-12T02:45:52;17.90;99.90
52941;DHT22;62001;53.366;6.636;2023-08-12T02:48:18;18.00;99.90
52941;DHT22;62001;53.366;6.636;2023-08-12T02:50:44;18.00;99.90
52941;DHT22;62001;53.366;6.636;2023-08-12T02:53:10;18.10;99.90
52941;DHT22;62001;53.366;6.636;2023-08-12T02:55:36;18.10;99.90
52941;DHT22;62001;53.366;6.636;2023-08-12T02:58:03;18.10;99.90
52941;DHT22;62001;53.366;6.636;2023-08-12T03:00:30;18.10;99.90
52941;DHT22;62001;53.366;6.636;2023-08-12T03:02:55;18.10;99.90
52941;DHT22;62001;53.366;6.636;2023-08-12T03:05:22;18.10;99.90
52941;DHT22;62001;53.366;6.636;2023-08-12T03:07:48;18.10;99.90
52941;DHT22;62001;53.366;6.636;2023-08-12T03:10:14;18.10;99.90
52941;DHT22;62001;53.366;6.636;2023-08-12T03:12:40;18.10;99.90
52941;DHT22;62001;53.366;6.636;2023-08-12T03:15:07;18.10;99.90
52941;DHT22;62001;53.366;6.636;2023-08-12T03:17:33;18.10;99.90
52941;DHT22;62001;53.366;6.636;2023-08-12T03:19:59;18.00;99.90
52941;DHT22;62001;53.366;6.636;2023-08-12T03:22:28;18.00;99.90
52941;DHT22;62001;53.366;6.636;2023-08-12T03:24:54;18.00;99.90
52941;DHT22;62001;53.366;6.636;2023-08-12T03:27:20;18.00;99.90
52941;DHT22;62001;53.366;6.636;2023-08-12T03:29:46;17.90;99.90
52941;DHT22;62001;53.366;6.636;2023-08-12T03:32:12;17.90;99.90
52941;DHT22;62001;53.366;6.636;2023-08-12T03:34:38;17.80;99.90
52941;DHT22;62001;53.366;6.636;2023-08-12T03:37:04;17.80;99.90
52941;DHT22;62001;53.366;6.636;2023-08-12T03:39:30;17.70;99.90
52941;DHT22;62001;53.366;6.636;2023-08-12T03:41:56;17.70;99.90
52941;DHT22;62001;53.366;6.636;2023-08-12T03:44:22;17.70;99.90
52941;DHT22;62001;53.366;6.636;2023-08-12T03:46:48;17.60;99.90
52941;DHT22;62001;53.366;6.636;2023-08-12T03:49:14;17.60;99.90
52941;DHT22;62001;53.366;6.636;2023-08-12T03:51:40;17.60;99.90
52941;DHT22;62001;53.366;6.636;2023-08-12T03:54:06;17.50;99.90
52941;DHT22;62001;53.366;6.636;2023-08-12T03:56:32;17.60;99.90
52941;DHT22;62001;53.366;6.636;2023-08-12T03:58:57;17.60;99.90
52941;DHT22;62001;53.366;6.636;2023-08-12T04:01:23;17.60;99.90
52941;DHT22;62001;53.366;6.636;2023-08-12T04:03:49;17.70;99.90
52941;DHT22;62001;53.366;6.636;2023-08-12T04:06:15;17.70;99.90
52941;DHT22;62001;53.366;6.636;2023-08-12T04:08:41;17.80;99.90
52941;DHT22;62001;53.366;6.636;2023-08-12T04:11:07;17.80;99.90
52941;DHT22;62001;53.366;6.636;2023-08-12T04:13:33;17.90;99.90
52941;DHT22;62001;53.366;6.636;2023-08-12T04:15:59;17.80;99.90
52941;DHT22;62001;53.366;6.636;2023-08-12T04:18:25;17.90;99.90
52941;DHT22;62001;53.366;6.636;2023-08-12T04:20:52;17.90;99.90
52941;DHT22;62001;53.366;6.636;2023-08-12T04:23:19;17.80;99.90
52941;DHT22;62001;53.366;6.636;2023-08-12T04:25:48;17.80;99.90
52941;DHT22;62001;53.366;6.636;2023-08-12T04:28:14;17.70;99.90
52941;DHT22;62001;53.366;6.636;2023-08-12T04:30:45;17.70;99.90
52941;DHT22;62001;53.366;6.636;2023-08-12T04:33:12;17.70;99.90
52941;DHT22;62001;53.366;6.636;2023-08-12T04:35:39;17.70;99.90
52941;DHT22;62001;53.366;6.636;2023-08-12T04:38:05;17.80;99.90
52941;DHT22;62001;53.366;6.636;2023-08-12T04:40:31;17.70;99.90
52941;DHT22;62001;53.366;6.636;2023-08-12T04:42:59;17.80;99.90
52941;DHT22;62001;53.366;6.636;2023-08-12T04:45:25;17.80;99.90
52941;DHT22;62001;53.366;6.636;2023-08-12T04:47:51;17.90;99.90
52941;DHT22;62001;53.366;6.636;2023-08-12T04:50:17;17.90;99.90
52941;DHT22;62001;53.366;6.636;2023-08-12T04:52:43;18.00;99.90
52941;DHT22;62001;53.366;6.636;2023-08-12T04:55:09;18.00;99.90
52941;DHT22;62001;53.366;6.636;2023-08-12T04:57:36;18.00;99.90
52941;DHT22;62001;53.366;6.636;2023-08-12T05:00:03;18.10;99.90
52941;DHT22;62001;53.366;6.636;2023-08-12T05:02:29;18.10;99.90
52941;DHT22;62001;53.366;6.636;2023-08-12T05:04:55;18.10;99.90
52941;DHT22;62001;53.366;6.636;2023-08-12T05:07:20;18.10;99.90
52941;DHT22;62001;53.366;6.636;2023-08-12T05:09:46;18.20;99.90
52941;DHT22;62001;53.366;6.636;2023-08-12T05:12:12;18.20;99.90
52941;DHT22;62001;53.366;6.636;2023-08-12T05:14:39;18.20;99.90
52941;DHT22;62001;53.366;6.636;2023-08-12T05:17:05;18.30;99.90
52941;DHT22;62001;53.366;6.636;2023-08-12T05:19:32;18.30;99.90
52941;DHT22;62001;53.366;6.636;2023-08-12T05:21:58;18.30;99.90
52941;DHT22;62001;53.366;6.636;2023-08-12T05:24:24;18.40;99.90
52941;DHT22;62001;53.366;6.636;2023-08-12T05:26:49;18.40;99.90
52941;DHT22;62001;53.366;6.636;2023-08-12T05:29:15;18.40;99.90
52941;DHT22;62001;53.366;6.636;2023-08-12T05:31:41;18.50;99.90
52941;DHT22;62001;53.366;6.636;2023-08-12T05:34:07;18.50;99.90
52941;DHT22;62001;53.366;6.636;2023-08-12T05:36:33;18.60;99.90
52941;DHT22;62001;53.366;6.636;2023-08-12T05:38:59;18.70;99.90
52941;DHT22;62001;53.366;6.636;2023-08-12T05:41:25;18.80;99.90
52941;DHT22;62001;53.366;6.636;2023-08-12T05:43:51;18.90;99.90
52941;DHT22;62001;53.366;6.636;2023-08-12T05:46:17;19.00;99.90
52941;DHT22;62001;53.366;6.636;2023-08-12T05:48:42;19.10;99.90
52941;DHT22;62001;53.366;6.636;2023-08-12T05:51:08;19.10;99.90
52941;DHT22;62001;53.366;6.636;2023-08-12T05:53:34;19.20;99.90
52941;DHT22;62001;53.366;6.636;2023-08-12T05:56:00;19.30;99.90
52941;DHT22;62001;53.366;6.636;2023-08-12T05:58:26;19.30;99.90
52941;DHT22;62001;53.366;6.636;2023-08-12T06:00:52;19.40;99.90
52941;DHT22;62001;53.366;6.636;2023-08-12T06:03:18;19.40;99.90
52941;DHT22;62001;53.366;6.636;2023-08-12T06:05:45;19.50;99.90
52941;DHT22;62001;53.366;6.636;2023-08-12T06:08:12;19.50;99.90
52941;DHT22;62001;53.366;6.636;2023-08-12T06:10:38;19.60;99.90
52941;DHT22;62001;53.366;6.636;2023-08-12T06:13:04;19.70;99.90
52941;DHT22;62001;53.366;6.636;2023-08-12T06:15:30;19.80;99.90
52941;DHT22;62001;53.366;6.636;2023-08-12T06:17:56;19.80;99.90
52941;DHT22;62001;53.366;6.636;2023-08-12T06:20:23;19.90;99.90
52941;DHT22;62001;53.366;6.636;2023-08-12T06:22:50;20.00;99.90
52941;DHT22;62001;53.366;6.636;2023-08-12T06:25:16;20.00;99.90
52941;DHT22;62001;53.366;6.636;2023-08-12T06:27:42;20.10;99.90
52941;DHT22;62001;53.366;6.636;2023-08-12T06:30:08;20.20;99.90
52941;DHT22;62001;53.366;6.636;2023-08-12T06:32:35;20.20;99.90
52941;DHT22;62001;53.366;6.636;2023-08-12T06:35:00;20.20;99.90
52941;DHT22;62001;53.366;6.636;2023-08-12T06:37:26;20.30;99.90
52941;DHT22;62001;53.366;6.636;2023-08-12T06:39:52;20.30;99.90
52941;DHT22;62001;53.366;6.636;2023-08-12T06:42:18;20.30;99.90
52941;DHT22;62001;53.366;6.636;2023-08-12T06:44:54;20.30;99.90
52941;DHT22;62001;53.366;6.636;2023-08-12T06:47:20;20.30;99.90
52941;DHT22;62001;53.366;6.636;2023-08-12T06:49:46;20.40;99.90
52941;DHT22;62001;53.366;6.636;2023-08-12T06:52:12;20.40;99.90
52941;DHT22;62001;53.366;6.636;2023-08-12T06:54:38;20.40;99.90
52941;DHT22;62001;53.366;6.636;2023-08-12T06:57:03;20.40;99.90
52941;DHT22;62001;53.366;6.636;2023-08-12T06:59:29;20.40;99.90
52941;DHT22;62001;53.366;6.636;2023-08-12T07:01:55;20.40;99.90
52941;DHT22;62001;53.366;6.636;2023-08-12T07:04:21;20.50;99.90
52941;DHT22;62001;53.366;6.636;2023-08-12T07:06:47;20.50;99.90
52941;DHT22;62001;53.366;6.636;2023-08-12T07:09:13;20.50;99.90
52941;DHT22;62001;53.366;6.636;2023-08-12T07:11:40;20.40;99.90
52941;DHT22;62001;53.366;6.636;2023-08-12T07:14:06;20.40;99.90
52941;DHT22;62001;53.366;6.636;2023-08-12T07:16:32;20.40;99.90
52941;DHT22;62001;53.366;6.636;2023-08-12T07:18:58;20.40;99.90
52941;DHT22;62001;53.366;6.636;2023-08-12T07:21:24;20.40;99.90
52941;DHT22;62001;53.366;6.636;2023-08-12T07:23:50;20.40;99.90
52941;DHT22;62001;53.366;6.636;2023-08-12T07:26:16;20.40;99.90
52941;DHT22;62001;53.366;6.636;2023-08-12T07:28:42;20.40;99.90
52941;DHT22;62001;53.366;6.636;2023-08-12T07:31:08;20.40;99.90
52941;DHT22;62001;53.366;6.636;2023-08-12T07:33:34;20.40;99.90
52941;DHT22;62001;53.366;6.636;2023-08-12T07:36:01;20.40;99.90
52941;DHT22;62001;53.366;6.636;2023-08-12T07:38:27;20.50;99.90
52941;DHT22;62001;53.366;6.636;2023-08-12T07:40:54;20.50;99.90
52941;DHT22;62001;53.366;6.636;2023-08-12T07:43:20;20.50;99.90
52941;DHT22;62001;53.366;6.636;2023-08-12T07:45:51;20.50;99.90
52941;DHT22;62001;53.366;6.636;2023-08-12T07:48:17;20.60;99.90
52941;DHT22;62001;53.366;6.636;2023-08-12T07:50:43;20.60;99.90
52941;DHT22;62001;53.366;6.636;2023-08-12T07:53:09;20.60;99.90
52941;DHT22;62001;53.366;6.636;2023-08-12T07:55:35;20.70;99.90
52941;DHT22;62001;53.366;6.636;2023-08-12T07:58:01;20.70;99.90
52941;DHT22;62001;53.366;6.636;2023-08-12T08:00:26;20.70;99.90
52941;DHT22;62001;53.366;6.636;2023-08-12T08:02:53;20.70;99.90
52941;DHT22;62001;53.366;6.636;2023-08-12T08:05:18;20.70;99.90
52941;DHT22;62001;53.366;6.636;2023-08-12T08:07:44;20.70;99.90
52941;DHT22;62001;53.366;6.636;2023-08-12T08:10:10;20.70;99.90
52941;DHT22;62001;53.366;6.636;2023-08-12T08:12:36;20.70;99.90
52941;DHT22;62001;53.366;6.636;2023-08-12T08:15:02;20.70;99.90
52941;DHT22;62001;53.366;6.636;2023-08-12T08:17:29;20.80;99.90
52941;DHT22;62001;53.366;6.636;2023-08-12T08:19:54;20.80;99.90
52941;DHT22;62001;53.366;6.636;2023-08-12T08:22:20;20.90;99.90
52941;DHT22;62001;53.366;6.636;2023-08-12T08:24:46;20.90;99.90
52941;DHT22;62001;53.366;6.636;2023-08-12T08:27:12;20.90;99.90
52941;DHT22;62001;53.366;6.636;2023-08-12T08:29:38;20.90;99.90
52941;DHT22;62001;53.366;6.636;2023-08-12T08:32:05;20.90;99.90
52941;DHT22;62001;53.366;6.636;2023-08-12T08:34:30;20.90;99.90
52941;DHT22;62001;53.366;6.636;2023-08-12T08:36:56;20.90;99.90
52941;DHT22;62001;53.366;6.636;2023-08-12T08:39:22;20.90;99.90
52941;DHT22;62001;53.366;6.636;2023-08-12T08:41:48;20.90;99.90
52941;DHT22;62001;53.366;6.636;2023-08-12T08:44:15;20.80;99.90
52941;DHT22;62001;53.366;6.636;2023-08-12T08:46:41;20.80;99.90
52941;DHT22;62001;53.366;6.636;2023-08-12T08:49:08;20.80;99.90
52941;DHT22;62001;53.366;6.636;2023-08-12T08:51:35;20.80;99.90
52941;DHT22;62001;53.366;6.636;2023-08-12T08:54:02;20.80;99.90
52941;DHT22;62001;53.366;6.636;2023-08-12T08:56:31;20.80;99.90
52941;DHT22;62001;53.366;6.636;2023-08-12T08:58:58;20.80;99.90
52941;DHT22;62001;53.366;6.636;2023-08-12T09:01:26;20.80;99.90
52941;DHT22;62001;53.366;6.636;2023-08-12T09:03:54;20.80;99.90
52941;DHT22;62001;53.366;6.636;2023-08-12T09:06:21;20.80;99.90
52941;DHT22;62001;53.366;6.636;2023-08-12T09:08:51;20.70;99.90
52941;DHT22;62001;53.366;6.636;2023-08-12T09:11:18;20.70;99.90
52941;DHT22;62001;53.366;6.636;2023-08-12T09:13:44;20.70;99.90
52941;DHT22;62001;53.366;6.636;2023-08-12T09:16:10;20.70;99.90
52941;DHT22;62001;53.366;6.636;2023-08-12T09:18:37;20.70;99.90
52941;DHT22;62001;53.366;6.636;2023-08-12T09:21:04;20.70;99.90
52941;DHT22;62001;53.366;6.636;2023-08-12T09:23:40;20.70;99.90
52941;DHT22;62001;53.366;6.636;2023-08-12T09:26:17;20.70;99.90
52941;DHT22;62001;53.366;6.636;2023-08-12T09:28:44;20.60;99.90
52941;DHT22;62001;53.366;6.636;2023-08-12T09:31:22;20.60;99.90
52941;DHT22;62001;53.366;6.636;2023-08-12T09:33:50;20.60;99.90
52941;DHT22;62001;53.366;6.636;2023-08-12T09:36:17;20.60;99.90
52941;DHT22;62001;53.366;6.636;2023-08-12T09:38:43;20.60;99.90
52941;DHT22;62001;53.366;6.636;2023-08-12T09:41:10;20.60;99.90
52941;DHT22;62001;53.366;6.636;2023-08-12T09:43:43;20.60;99.90
52941;DHT22;62001;53.366;6.636;2023-08-12T09:46:12;20.60;99.90
52941;DHT22;62001;53.366;6.636;2023-08-12T09:48:41;20.70;99.90
52941;DHT22;62001;53.366;6.636;2023-08-12T09:51:07;20.70;99.90
52941;DHT22;62001;53.366;6.636;2023-08-12T09:53:34;20.70;99.90
52941;DHT22;62001;53.366;6.636;2023-08-12T09:56:11;20.70;99.90
52941;DHT22;62001;53.366;6.636;2023-08-12T09:58:39;20.80;99.90
52941;DHT22;62001;53.366;6.636;2023-08-12T10:01:09;20.70;99.90
52941;DHT22;62001;53.366;6.636;2023-08-12T10:03:36;20.70;99.90
52941;DHT22;62001;53.366;6.636;2023-08-12T10:06:03;20.80;99.90
52941;DHT22;62001;53.366;6.636;2023-08-12T10:08:30;20.80;99.90
52941;DHT22;62001;53.366;6.636;2023-08-12T10:10:57;20.90;99.90
52941;DHT22;62001;53.366;6.636;2023-08-12T10:13:23;20.90;99.90
52941;DHT22;62001;53.366;6.636;2023-08-12T10:15:50;20.90;99.90
52941;DHT22;62001;53.366;6.636;2023-08-12T10:18:18;20.90;99.90
52941;DHT22;62001;53.366;6.636;2023-08-12T10:20:45;20.90;99.90
52941;DHT22;62001;53.366;6.636;2023-08-12T10:23:16;20.90;99.90
52941;DHT22;62001;53.366;6.636;2023-08-12T10:25:43;20.90;99.90
52941;DHT22;62001;53.366;6.636;2023-08-12T10:28:13;20.80;99.90
52941;DHT22;62001;53.366;6.636;2023-08-12T10:30:41;20.80;99.90
52941;DHT22;62001;53.366;6.636;2023-08-12T10:33:09;20.80;99.90
52941;DHT22;62001;53.366;6.636;2023-08-12T10:35:49;20.70;99.90
52941;DHT22;62001;53.366;6.636;2023-08-12T10:38:18;20.70;99.90
52941;DHT22;62001;53.366;6.636;2023-08-12T10:40:44;20.60;99.90
52941;DHT22;62001;53.366;6.636;2023-08-12T10:43:14;20.60;99.90
52941;DHT22;62001;53.366;6.636;2023-08-12T10:45:48;20.60;99.90
52941;DHT22;62001;53.366;6.636;2023-08-12T10:48:22;20.60;99.90
52941;DHT22;62001;53.366;6.636;2023-08-12T10:50:52;20.70;99.90
52941;DHT22;62001;53.366;6.636;2023-08-12T10:53:32;20.70;99.90
52941;DHT22;62001;53.366;6.636;2023-08-12T10:56:01;20.90;99.90
52941;DHT22;62001;53.366;6.636;2023-08-12T10:58:45;21.10;99.90
52941;DHT22;62001;53.366;6.636;2023-08-12T11:01:13;21.30;99.90
52941;DHT22;62001;53.366;6.636;2023-08-12T11:03:45;21.50;99.90
52941;DHT22;62001;53.366;6.636;2023-08-12T11:06:12;21.70;99.90
52941;DHT22;62001;53.366;6.636;2023-08-12T11:08:52;21.80;99.90
52941;DHT22;62001;53.366;6.636;2023-08-12T11:11:22;21.80;99.90
52941;DHT22;62001;53.366;6.636;2023-08-12T11:13:58;21.80;99.90
52941;DHT22;62001;53.366;6.636;2023-08-12T11:16:37;21.80;99.90
52941;DHT22;62001;53.366;6.636;2023-08-12T11:19:04;21.90;99.90
52941;DHT22;62001;53.366;6.636;2023-08-12T11:21:31;21.90;99.90
52941;DHT22;62001;53.366;6.636;2023-08-12T11:23:57;21.90;99.90
52941;DHT22;62001;53.366;6.636;2023-08-12T11:26:25;21.90;99.90
52941;DHT22;62001;53.366;6.636;2023-08-12T11:28:51;21.90;99.90
52941;DHT22;62001;53.366;6.636;2023-08-12T11:31:18;21.80;99.90
52941;DHT22;62001;53.366;6.636;2023-08-12T11:33:44;21.70;99.90
52941;DHT22;62001;53.366;6.636;2023-08-12T11:36:10;21.70;99.90
52941;DHT22;62001;53.366;6.636;2023-08-12T11:38:37;21.70;99.90
52941;DHT22;62001;53.366;6.636;2023-08-12T11:41:03;21.80;99.90
52941;DHT22;62001;53.366;6.636;2023-08-12T11:43:31;21.80;99.90
52941;DHT22;62001;53.366;6.636;2023-08-12T11:45:59;21.80;99.90
52941;DHT22;62001;53.366;6.636;2023-08-12T11:48:27;21.80;99.90
52941;DHT22;62001;53.366;6.636;2023-08-12T11:50:53;21.80;99.90
52941;DHT22;62001;53.366;6.636;2023-08-12T11:53:19;21.80;99.90
52941;DHT22;62001;53.366;6.636;2023-08-12T11:55:45;21.80;99.90
52941;DHT22;62001;53.366;6.636;2023-08-12T11:58:15;21.80;99.90
52941;DHT22;62001;53.366;6.636;2023-08-12T12:00:46;21.80;99.90
52941;DHT22;62001;53.366;6.636;2023-08-12T12:03:12;21.80;99.90
52941;DHT22;62001;53.366;6.636;2023-08-12T12:05:38;21.70;99.90
52941;DHT22;62001;53.366;6.636;2023-08-12T12:08:04;21.70;99.90
52941;DHT22;62001;53.366;6.636;2023-08-12T12:10:32;21.50;99.90
52941;DHT22;62001;53.366;6.636;2023-08-12T12:13:00;21.20;99.90
52941;DHT22;62001;53.366;6.636;2023-08-12T12:15:26;20.80;99.90
52941;DHT22;62001;53.366;6.636;2023-08-12T12:17:52;20.50;99.90
52941;DHT22;62001;53.366;6.636;2023-08-12T12:20:18;20.30;99.90
52941;DHT22;62001;53.366;6.636;2023-08-12T12:22:45;20.10;99.90
52941;DHT22;62001;53.366;6.636;2023-08-12T12:25:16;20.00;99.90
52941;DHT22;62001;53.366;6.636;2023-08-12T12:27:46;20.00;99.90
52941;DHT22;62001;53.366;6.636;2023-08-12T12:30:16;19.90;99.90
52941;DHT22;62001;53.366;6.636;2023-08-12T12:32:43;19.80;99.90
52941;DHT22;62001;53.366;6.636;2023-08-12T12:35:09;19.80;99.90
52941;DHT22;62001;53.366;6.636;2023-08-12T12:37:35;19.70;99.90
52941;DHT22;62001;53.366;6.636;2023-08-12T12:40:02;19.70;99.90
52941;DHT22;62001;53.366;6.636;2023-08-12T12:42:29;19.60;99.90
52941;DHT22;62001;53.366;6.636;2023-08-12T12:44:55;19.60;99.90
52941;DHT22;62001;53.366;6.636;2023-08-12T12:47:21;19.60;99.90
52941;DHT22;62001;53.366;6.636;2023-08-12T12:49:47;19.70;99.90
52941;DHT22;62001;53.366;6.636;2023-08-12T12:52:13;19.80;99.90
52941;DHT22;62001;53.366;6.636;2023-08-12T12:54:38;19.90;99.90
52941;DHT22;62001;53.366;6.636;2023-08-12T12:57:05;19.90;99.90
52941;DHT22;62001;53.366;6.636;2023-08-12T12:59:31;20.10;99.90
52941;DHT22;62001;53.366;6.636;2023-08-12T13:01:57;20.20;99.90
52941;DHT22;62001;53.366;6.636;2023-08-12T13:04:23;20.30;99.90
52941;DHT22;62001;53.366;6.636;2023-08-12T13:06:49;20.30;99.90
52941;DHT22;62001;53.366;6.636;2023-08-12T13:09:15;20.30;99.90
52941;DHT22;62001;53.366;6.636;2023-08-12T13:11:41;20.20;99.90
52941;DHT22;62001;53.366;6.636;2023-08-12T13:14:06;20.20;99.90
52941;DHT22;62001;53.366;6.636;2023-08-12T13:16:32;20.30;99.90
52941;DHT22;62001;53.366;6.636;2023-08-12T13:18:58;20.30;99.90
52941;DHT22;62001;53.366;6.636;2023-08-12T13:21:25;20.40;99.90
52941;DHT22;62001;53.366;6.636;2023-08-12T13:23:51;20.40;99.90
52941;DHT22;62001;53.366;6.636;2023-08-12T13:26:18;20.50;99.90
52941;DHT22;62001;53.366;6.636;2023-08-12T13:28:44;20.60;99.90
52941;DHT22;62001;53.366;6.636;2023-08-12T13:31:11;20.70;99.90
52941;DHT22;62001;53.366;6.636;2023-08-12T13:33:37;20.90;99.90
52941;DHT22;62001;53.366;6.636;2023-08-12T13:36:03;21.10;99.90
52941;DHT22;62001;53.366;6.636;2023-08-12T13:38:29;21.40;99.90
52941;DHT22;62001;53.366;6.636;2023-08-12T13:40:55;21.60;99.90
52941;DHT22;62001;53.366;6.636;2023-08-12T13:43:21;21.90;99.90
52941;DHT22;62001;53.366;6.636;2023-08-12T13:45:47;22.00;99.90
52941;DHT22;62001;53.366;6.636;2023-08-12T13:48:13;22.10;99.90
52941;DHT22;62001;53.366;6.636;2023-08-12T13:50:39;22.20;99.90
52941;DHT22;62001;53.366;6.636;2023-08-12T13:53:05;22.30;99.90
52941;DHT22;62001;53.366;6.636;2023-08-12T13:55:31;22.30;99.90
52941;DHT22;62001;53.366;6.636;2023-08-12T13:57:56;22.20;99.90
52941;DHT22;62001;53.366;6.636;2023-08-12T14:00:22;22.20;99.90
52941;DHT22;62001;53.366;6.636;2023-08-12T14:02:50;22.30;99.90
52941;DHT22;62001;53.366;6.636;2023-08-12T14:05:16;22.20;99.90
52941;DHT22;62001;53.366;6.636;2023-08-12T14:07:42;22.30;99.90
52941;DHT22;62001;53.366;6.636;2023-08-12T14:10:08;22.50;99.90
52941;DHT22;62001;53.366;6.636;2023-08-12T14:12:37;22.60;99.90
52941;DHT22;62001;53.366;6.636;2023-08-12T14:15:03;22.60;99.90
52941;DHT22;62001;53.366;6.636;2023-08-12T14:17:29;22.50;99.90
52941;DHT22;62001;53.366;6.636;2023-08-12T14:19:55;22.40;99.90
52941;DHT22;62001;53.366;6.636;2023-08-12T14:22:21;22.60;99.90
52941;DHT22;62001;53.366;6.636;2023-08-12T14:24:47;22.80;99.90
52941;DHT22;62001;53.366;6.636;2023-08-12T14:27:16;22.90;99.90
52941;DHT22;62001;53.366;6.636;2023-08-12T14:29:45;22.90;99.90
52941;DHT22;62001;53.366;6.636;2023-08-12T14:32:11;23.10;99.90
52941;DHT22;62001;53.366;6.636;2023-08-12T14:34:37;23.20;99.90
52941;DHT22;62001;53.366;6.636;2023-08-12T14:37:03;23.30;99.90
52941;DHT22;62001;53.366;6.636;2023-08-12T14:39:29;23.40;99.90
52941;DHT22;62001;53.366;6.636;2023-08-12T14:41:55;23.50;99.90
52941;DHT22;62001;53.366;6.636;2023-08-12T14:44:21;23.50;99.90
52941;DHT22;62001;53.366;6.636;2023-08-12T14:46:47;23.60;99.90
52941;DHT22;62001;53.366;6.636;2023-08-12T14:49:13;23.70;99.90
52941;DHT22;62001;53.366;6.636;2023-08-12T14:51:39;23.70;99.90
52941;DHT22;62001;53.366;6.636;2023-08-12T14:54:05;23.70;99.90
52941;DHT22;62001;53.366;6.636;2023-08-12T14:56:31;23.70;99.90
52941;DHT22;62001;53.366;6.636;2023-08-12T14:58:57;23.50;99.90
52941;DHT22;62001;53.366;6.636;2023-08-12T15:01:23;23.50;99.90
52941;DHT22;62001;53.366;6.636;2023-08-12T15:03:52;23.50;99.90
52941;DHT22;62001;53.366;6.636;2023-08-12T15:06:21;23.50;99.90
52941;DHT22;62001;53.366;6.636;2023-08-12T15:08:47;23.60;99.90
52941;DHT22;62001;53.366;6.636;2023-08-12T15:11:14;23.60;99.90
52941;DHT22;62001;53.366;6.636;2023-08-12T15:13:40;23.60;99.90
52941;DHT22;62001;53.366;6.636;2023-08-12T15:16:06;23.70;99.90
52941;DHT22;62001;53.366;6.636;2023-08-12T15:18:32;23.60;99.90
52941;DHT22;62001;53.366;6.636;2023-08-12T15:20:58;23.50;99.90
52941;DHT22;62001;53.366;6.636;2023-08-12T15:23:24;23.50;99.90
52941;DHT22;62001;53.366;6.636;2023-08-12T15:25:50;23.40;99.90
52941;DHT22;62001;53.366;6.636;2023-08-12T15:28:15;23.40;99.90
52941;DHT22;62001;53.366;6.636;2023-08-12T15:30:42;23.50;99.90